Time;durP1;ratioP1;P1;durP2;ratioP2;P2;SDS_P1;SDS_P2;PMS_P1;PMS_P2;Temp;Humidity;BMP_temperature;BMP_pressure;BME280_temperature;BME280_humidity;BME280_pressure;Samples;Min_cycle;Max_cycle;Signal;HPM_P1;HPM_P2
2021/01/26 05:05:21;;;;;;;8.67;7.77;;;;;;;4.86;56.66;98642.09;6245396;23;20238;-81
2021/01/26 05:08:45;;;;;;;8.43;7.03;;;;;;;5.04;56.06;98645.34;6919587;28;20204;-80
2021/01/26 05:12:09;;;;;;;8.00;6.83;;;;;;;4.92;57.25;98666.28;6918942;28;20209;-80
2021/01/26 05:15:32;;;;;;;10.93;7.20;;;;;;;5.09;56.20;98689.25;6888345;28;20277;-81
2021/01/26 05:18:56;;;;;;;7.87;6.33;;;;;;;4.80;56.77;98696.19;6917706;28;20222;-80
2021/01/26 05:22:24;;;;;;;10.30;7.03;;;;;;;4.89;57.13;98693.31;6919701;28;20283;-80
2021/01/26 05:25:46;;;;;;;7.13;6.37;;;;;;;5.34;55.95;98685.44;6902270;28;20213;-80
2021/01/26 05:29:08;;;;;;;9.77;6.60;;;;;;;4.96;55.60;98646.19;6920098;28;20225;-81
2021/01/26 05:32:30;;;;;;;8.50;6.40;;;;;;;5.61;54.08;98668.06;6918975;28;20620;-81
2021/01/26 05:35:53;;;;;;;8.47;6.63;;;;;;;5.50;54.84;98692.53;6918406;28;20233;-81
2021/01/26 05:39:19;;;;;;;7.97;5.73;;;;;;;5.24;56.20;98671.47;6918604;28;20205;-80
2021/01/26 05:42:40;;;;;;;7.83;6.30;;;;;;;4.98;56.67;98670.94;6919567;28;20213;-81
2021/01/26 05:46:04;;;;;;;6.33;5.57;;;;;;;5.40;55.63;98692.75;6900481;28;20214;-81
2021/01/26 05:49:33;;;;;;;8.17;6.57;;;;;;;5.61;55.17;98684.94;6882859;28;20236;-81
2021/01/26 05:52:56;;;;;;;7.17;5.83;;;;;;;5.47;55.18;98693.72;6920619;28;20632;-81
2021/01/26 05:56:20;;;;;;;8.30;6.27;;;;;;;5.52;54.84;98686.00;6920552;28;20238;-81
2021/01/26 05:59:43;;;;;;;9.67;6.70;;;;;;;5.40;55.67;98692.75;6920206;28;20358;-82
2021/01/26 06:03:14;;;;;;;9.47;6.97;;;;;;;5.68;54.86;98685.91;6899617;28;20247;-81
2021/01/26 06:06:51;;;;;;;7.83;6.07;;;;;;;5.85;54.67;98703.53;6922535;28;20209;-81
2021/01/26 06:10:19;;;;;;;8.67;6.70;;;;;;;5.46;55.14;98688.53;6922090;28;20269;-81
2021/01/26 06:13:41;;;;;;;9.20;6.23;;;;;;;5.15;54.58;98645.81;6906139;28;20219;-80
2021/01/26 06:17:08;;;;;;;8.27;6.40;;;;;;;5.87;54.51;98722.09;6892833;28;20235;-81
2021/01/26 06:20:29;;;;;;;10.03;7.07;;;;;;;6.00;53.99;98715.13;6918393;28;20202;-81
2021/01/26 06:23:50;;;;;;;10.73;7.83;;;;;;;6.14;53.34;98700.97;6920154;28;20228;-81
2021/01/26 06:27:33;;;;;;;8.40;6.13;;;;;;;5.68;54.30;98698.44;6913471;28;20207;-81
2021/01/26 06:31:01;;;;;;;7.00;6.30;;;;;;;5.73;54.51;98723.63;6891970;28;20654;-81
2021/01/26 06:34:47;;;;;;;8.17;5.97;;;;;;;5.58;54.04;98687.97;6911397;28;20566;-80
2021/01/26 06:38:30;;;;;;;8.27;5.60;;;;;;;5.66;55.05;98711.97;6918318;28;20244;-81
2021/01/26 06:42:02;;;;;;;7.67;5.47;;;;;;;5.68;55.46;98739.41;6918187;28;20606;-81
2021/01/26 06:45:33;;;;;;;9.80;5.90;;;;;;;5.90;54.93;98743.16;6918405;28;20548;-82
2021/01/26 06:49:21;;;;;;;7.00;4.97;;;;;;;5.79;55.11;98738.16;6918718;28;20209;-81
2021/01/26 06:52:50;;;;;;;8.40;6.07;;;;;;;5.73;55.58;98742.38;6911412;28;20237;-82
2021/01/26 06:56:32;;;;;;;7.87;6.20;;;;;;;5.60;56.02;98762.69;6892155;28;20269;-81
2021/01/26 07:00:09;;;;;;;5.90;4.77;;;;;;;5.50;56.92;98751.38;6893371;28;20206;-81
2021/01/26 07:04:05;;;;;;;8.40;5.07;;;;;;;5.58;56.59;98762.84;6893711;28;20230;-81
2021/01/26 07:08:03;;;;;;;7.37;4.73;;;;;;;5.31;58.13;98774.00;6887316;28;20647;-81
2021/01/26 07:11:55;;;;;;;5.80;4.90;;;;;;;5.19;58.28;98756.66;6876178;28;20207;-81
2021/01/26 07:15:31;;;;;;;7.43;5.50;;;;;;;5.15;58.00;98758.03;6895578;28;20230;-81
2021/01/26 07:19:28;;;;;;;5.17;4.70;;;;;;;5.32;58.28;98743.56;6883907;28;20637;-81
2021/01/26 07:23:07;;;;;;;7.27;5.00;;;;;;;5.42;58.43;98768.28;6891181;28;20203;-80
2021/01/26 07:27:05;;;;;;;10.57;5.20;;;;;;;5.60;57.64;98766.19;6891887;28;20588;-81
2021/01/26 07:30:27;;;;;;;7.83;5.03;;;;;;;5.41;57.08;98769.28;6891024;28;20203;-81
2021/01/26 07:33:52;;;;;;;7.07;4.70;;;;;;;5.46;57.41;98758.06;6892416;28;20258;-82
2021/01/26 07:37:19;;;;;;;8.07;4.77;;;;;;;5.34;56.68;98781.69;6890812;28;20322;-81
2021/01/26 07:40:47;;;;;;;5.23;4.50;;;;;;;5.37;57.52;98807.22;6873814;28;20192;-80
2021/01/26 07:44:14;;;;;;;4.87;4.37;;;;;;;5.37;57.81;98821.41;6914462;28;20233;-81
2021/01/26 07:47:38;;;;;;;8.07;4.60;;;;;;;5.35;58.35;98819.91;6923128;28;20198;-81
2021/01/26 07:51:04;;;;;;;5.77;3.93;;;;;;;5.06;58.06;98758.19;6922745;28;20216;-81
2021/01/26 07:54:30;;;;;;;4.63;4.13;;;;;;;5.42;57.64;98792.31;6922613;28;20205;-81
2021/01/26 07:57:57;;;;;;;8.00;4.37;;;;;;;5.23;58.42;98831.97;6905546;28;20203;-81
2021/01/26 08:01:25;;;;;;;5.00;4.30;;;;;;;4.84;58.88;98774.97;6900552;28;20214;-81
2021/01/26 08:04:46;;;;;;;5.87;3.70;;;;;;;5.68;57.82;98808.09;6921600;28;20582;-81
2021/01/26 08:08:09;;;;;;;5.33;4.37;;;;;;;5.78;58.26;98836.28;6909889;28;20207;-82
2021/01/26 08:11:31;;;;;;;5.70;4.40;;;;;;;5.70;57.73;98843.53;6917950;28;20223;-81
2021/01/26 08:14:55;;;;;;;6.80;4.10;;;;;;;5.53;57.02;98754.53;6922907;28;20322;-81
2021/01/26 08:18:20;;;;;;;6.60;4.03;;;;;;;5.75;56.17;98785.84;6922863;28;20232;-82
2021/01/26 08:21:45;;;;;;;8.60;3.97;;;;;;;5.47;56.72;98814.03;6939573;28;20203;-81
2021/01/26 08:25:09;;;;;;;6.50;4.13;;;;;;;5.96;56.01;98830.75;6944475;28;20306;-79
2021/01/26 08:28:51;;;;;;;7.73;4.20;;;;;;;6.16;55.31;98837.31;6925378;28;20221;-76
2021/01/26 08:32:45;;;;;;;4.70;4.30;;;;;;;6.13;55.46;98845.69;6915215;28;20241;-76
2021/01/26 08:36:10;;;;;;;9.27;4.17;;;;;;;4.96;57.46;98763.75;6913535;28;20591;-74
2021/01/26 08:39:40;;;;;;;5.20;4.70;;;;;;;5.96;56.88;98861.00;6893232;28;20204;-74
2021/01/26 08:43:02;;;;;;;6.97;4.37;;;;;;;6.50;55.32;98872.56;6912629;28;20262;-75
2021/01/26 08:46:33;;;;;;;5.47;4.53;;;;;;;6.14;55.96;98855.41;6920383;28;20206;-74
2021/01/26 08:50:10;;;;;;;13.10;5.40;;;;;;;6.49;55.34;98836.91;6915527;28;20213;-74
2021/01/26 08:53:35;;;;;;;7.67;4.30;;;;;;;6.50;54.58;98881.44;6892936;28;20298;-76
2021/01/26 08:56:56;;;;;;;7.17;4.63;;;;;;;5.49;55.52;98755.88;6892170;28;20224;-76
2021/01/26 09:00:28;;;;;;;7.33;4.90;;;;;;;6.10;55.01;98838.84;6893357;28;20212;-75
2021/01/26 09:03:50;;;;;;;4.77;4.23;;;;;;;6.09;54.89;98863.97;6892432;28;20584;-75
2021/01/26 09:07:48;;;;;;;10.13;4.57;;;;;;;6.08;55.18;98877.50;6892561;28;20218;-75
2021/01/26 09:11:15;;;;;;;6.27;4.90;;;;;;;5.47;57.05;98898.75;6891480;28;20302;-74
2021/01/26 09:14:41;;;;;;;6.77;5.23;;;;;;;6.06;55.39;98901.75;6891784;28;20259;-74
2021/01/26 09:18:02;;;;;;;7.83;4.53;;;;;;;6.14;55.05;98885.66;6891812;28;20214;-74
2021/01/26 09:21:24;;;;;;;5.70;3.83;;;;;;;5.98;54.58;98887.59;6891670;28;20481;-74
2021/01/26 09:24:48;;;;;;;6.67;4.93;;;;;;;6.18;53.69;98886.16;6892037;28;20259;-74
2021/01/26 09:28:12;;;;;;;6.57;4.10;;;;;;;6.31;53.71;98889.91;6891522;28;20223;-73
2021/01/26 09:31:34;;;;;;;6.57;5.47;;;;;;;6.04;53.75;98866.31;6893890;28;20241;-74
2021/01/26 09:35:07;;;;;;;6.87;3.70;;;;;;;6.25;53.69;98900.50;6891586;28;20586;-74
2021/01/26 09:38:31;;;;;;;5.00;4.50;;;;;;;6.89;52.59;98898.22;6891805;28;20204;-73
2021/01/26 09:41:53;;;;;;;5.10;4.50;;;;;;;6.59;52.49;98848.22;6890789;28;20317;-73
2021/01/26 09:45:18;;;;;;;6.77;4.37;;;;;;;6.96;51.40;98893.78;6891286;28;20211;-73
2021/01/26 09:48:44;;;;;;;4.97;3.57;;;;;;;6.58;52.18;98893.94;6906727;28;20216;-73
2021/01/26 09:52:08;;;;;;;4.00;3.40;;;;;;;6.23;52.02;98854.31;6900539;28;20223;-74
2021/01/26 09:55:30;;;;;;;5.50;3.60;;;;;;;6.14;51.88;98860.75;6917501;28;20236;-74
2021/01/26 09:58:53;;;;;;;3.97;3.57;;;;;;;6.88;51.30;98925.19;6917799;28;20238;-72
2021/01/26 10:02:16;;;;;;;4.93;3.57;;;;;;;7.00;50.70;98937.16;6917164;28;20243;-73
2021/01/26 10:05:38;;;;;;;5.70;3.70;;;;;;;6.14;51.50;98856.22;6917700;28;20673;-73
2021/01/26 10:09:29;;;;;;;4.80;3.37;;;;;;;6.69;51.17;98923.84;6916738;28;20213;-73
2021/01/26 10:12:50;;;;;;;7.63;3.77;;;;;;;6.78;50.73;98898.63;6916847;28;20209;-74
2021/01/26 10:16:40;;;;;;;5.23;3.63;;;;;;;6.74;50.73;98931.34;6894435;28;20228;-72
2021/01/26 10:20:01;;;;;;;5.00;3.43;;;;;;;6.82;50.99;98872.31;6867441;28;20213;-74
2021/01/26 10:23:28;;;;;;;5.30;3.27;;;;;;;6.10;52.44;98849.56;6890387;28;20211;-79
2021/01/26 10:26:49;;;;;;;8.27;3.57;;;;;;;6.60;50.17;98852.56;6890356;28;20207;-73
2021/01/26 10:30:16;;;;;;;5.87;4.10;;;;;;;6.85;50.03;98920.19;6890641;28;20653;-74
2021/01/26 10:33:41;;;;;;;3.73;3.43;;;;;;;6.69;50.39;98944.41;6890335;28;20325;-73
2021/01/26 10:37:28;;;;;;;6.20;3.50;;;;;;;6.81;50.45;98926.91;6890123;28;20232;-73
2021/01/26 10:41:04;;;;;;;3.17;2.97;;;;;;;7.28;49.36;98949.00;6890207;28;20186;-73
2021/01/26 10:44:25;;;;;;;5.33;3.00;;;;;;;7.62;48.66;98962.78;6900942;28;20208;-74
2021/01/26 10:47:47;;;;;;;8.00;3.43;;;;;;;7.41;47.81;98877.63;6889709;28;20212;-73
2021/01/26 10:51:14;;;;;;;5.13;3.97;;;;;;;6.82;49.77;98945.50;6889961;28;20200;-75
2021/01/26 10:54:36;;;;;;;6.03;3.30;;;;;;;6.77;48.50;98905.00;6890171;28;20230;-74
2021/01/26 10:57:57;;;;;;;4.97;3.20;;;;;;;6.83;50.09;98959.75;6890127;28;20544;-75
2021/01/26 11:01:20;;;;;;;5.27;3.27;;;;;;;7.28;49.22;98965.09;6889529;28;20545;-74
2021/01/26 11:04:41;;;;;;;3.33;3.00;;;;;;;6.96;49.08;98903.69;6889526;28;20223;-75
2021/01/26 11:08:04;;;;;;;5.57;3.23;;;;;;;6.47;49.51;98891.66;6890074;28;20219;-76
2021/01/26 11:11:27;;;;;;;4.10;3.70;;;;;;;6.81;50.09;98973.31;6890271;28;20212;-75
2021/01/26 11:14:49;;;;;;;8.33;5.47;;;;;;;5.83;50.04;98841.19;6891807;28;20654;-76
2021/01/26 11:18:11;;;;;;;4.73;4.23;;;;;;;6.68;49.13;98892.69;6917292;28;20199;-75
2021/01/26 11:21:32;;;;;;;7.20;3.27;;;;;;;6.66;51.68;98971.56;6898094;28;20293;-75
2021/01/26 11:24:55;;;;;;;6.97;3.00;;;;;;;7.17;50.54;98973.53;6898082;28;20298;-75
2021/01/26 11:28:16;;;;;;;3.03;2.80;;;;;;;7.17;48.98;98877.88;6897522;28;20278;-83
2021/01/26 11:31:37;;;;;;;9.17;3.20;;;;;;;6.42;50.54;98868.09;6895026;28;20306;-76
2021/01/26 11:34:59;;;;;;;4.50;3.10;;;;;;;6.56;49.50;98880.72;6895958;28;20587;-76
2021/01/26 11:38:20;;;;;;;3.27;2.97;;;;;;;5.84;51.13;98861.56;6895142;28;20239;-76
2021/01/26 11:41:42;;;;;;;3.70;3.10;;;;;;;6.84;51.00;98935.44;6895230;28;20215;-76
2021/01/26 11:45:05;;;;;;;5.73;3.50;;;;;;;7.66;47.69;98940.75;6912609;28;20203;-76
2021/01/26 11:48:27;;;;;;;4.83;3.67;;;;;;;7.43;48.56;98942.66;6905665;28;20288;-78
2021/01/26 11:51:48;;;;;;;4.13;2.90;;;;;;;7.79;47.08;98996.47;6894838;28;20631;-75
2021/01/26 11:55:11;;;;;;;6.03;3.50;;;;;;;7.82;48.05;98996.09;6895099;28;20321;-76
2021/01/26 11:58:35;;;;;;;3.83;2.90;;;;;;;7.59;47.35;98936.28;6894584;28;20263;-76
2021/01/26 12:01:58;;;;;;;4.30;2.80;;;;;;;6.34;47.70;98910.16;6894554;28;20598;-76
2021/01/26 12:05:23;;;;;;;4.83;3.83;;;;;;;6.76;47.72;98919.44;6894695;28;20261;-74
2021/01/26 12:08:46;;;;;;;6.47;3.30;;;;;;;6.41;47.22;98905.75;6876961;28;20238;-77
2021/01/26 12:12:07;;;;;;;8.00;3.93;;;;;;;6.40;48.43;98947.78;6904747;28;20591;-75
2021/01/26 12:15:31;;;;;;;5.43;4.23;;;;;;;6.82;47.17;98875.84;6920906;28;20563;-75
2021/01/26 12:18:52;;;;;;;5.17;4.67;;;;;;;6.29;47.75;98849.09;6920827;28;20214;-75
2021/01/26 12:22:14;;;;;;;6.33;4.43;;;;;;;7.49;46.27;98949.97;6912613;28;20201;-76
2021/01/26 12:25:36;;;;;;;5.57;4.30;;;;;;;7.05;46.32;98892.72;6893728;28;20266;-76
2021/01/26 12:28:57;;;;;;;6.10;4.30;;;;;;;7.97;46.30;98987.06;6903181;28;20557;-76
2021/01/26 12:32:20;;;;;;;6.83;4.60;;;;;;;7.25;46.95;98982.38;6906674;28;20212;-76
2021/01/26 12:35:42;;;;;;;6.20;4.50;;;;;;;6.89;46.93;98951.00;6920030;28;20703;-77
2021/01/26 12:39:04;;;;;;;10.03;5.10;;;;;;;7.57;46.82;98974.06;6893009;28;20226;-76
2021/01/26 12:42:26;;;;;;;94.80;39.97;;;;;;;6.80;45.59;98829.63;6892170;28;20265;-76
2021/01/26 12:45:47;;;;;;;8.03;4.60;;;;;;;7.26;46.48;98978.66;6893216;28;20231;-76
2021/01/26 12:49:11;;;;;;;8.77;5.67;;;;;;;7.63;45.29;98844.53;6913346;28;20208;-76
2021/01/26 12:52:32;;;;;;;4.77;3.53;;;;;;;7.95;44.18;98916.59;6919875;28;20219;-76
2021/01/26 12:55:53;;;;;;;19.77;12.57;;;;;;;7.73;45.28;98951.59;6920694;28;20230;-75
2021/01/26 12:59:15;;;;;;;9.20;4.30;;;;;;;7.33;45.87;98936.72;6922992;28;20211;-73
2021/01/26 13:02:40;;;;;;;4.57;3.47;;;;;;;7.74;45.43;98931.78;6932136;28;20242;-77
2021/01/26 13:06:07;;;;;;;8.60;4.67;;;;;;;7.81;44.66;98970.28;6918353;28;20259;-76
2021/01/26 13:09:32;;;;;;;7.23;3.70;;;;;;;7.83;45.09;98941.44;6919984;28;20550;-76
2021/01/26 13:12:58;;;;;;;3.27;2.97;;;;;;;7.40;45.16;98910.84;6916929;28;20210;-77
2021/01/26 13:16:20;;;;;;;6.63;3.90;;;;;;;7.85;45.25;98963.53;6913148;28;20211;-77
2021/01/26 13:19:50;;;;;;;4.10;3.60;;;;;;;7.85;45.38;98966.22;6892097;28;20225;-76
2021/01/26 13:23:13;;;;;;;3.00;2.70;;;;;;;7.28;44.61;98919.50;6918620;28;20338;-77
2021/01/26 13:26:34;;;;;;;4.93;4.33;;;;;;;7.65;44.22;98882.72;6919143;28;20778;-77
2021/01/26 13:29:55;;;;;;;5.90;5.00;;;;;;;7.50;45.10;98900.69;6916806;28;20705;-77
2021/01/26 13:33:17;;;;;;;5.67;3.53;;;;;;;7.36;44.91;98845.16;6892709;28;20208;-77
2021/01/26 13:36:39;;;;;;;5.27;3.80;;;;;;;7.80;44.86;98921.16;6891635;28;20662;-76
2021/01/26 13:40:01;;;;;;;8.27;4.00;;;;;;;8.46;44.42;98955.94;6890712;28;20687;-76
2021/01/26 13:43:22;;;;;;;5.80;3.17;;;;;;;7.93;44.52;98948.19;6917524;28;20313;-77
2021/01/26 13:46:50;;;;;;;3.73;3.43;;;;;;;7.81;44.90;98905.88;6901855;28;20235;-78
2021/01/26 13:50:13;;;;;;;3.73;3.10;;;;;;;8.41;45.20;98968.25;6900153;28;20212;-77
2021/01/26 13:53:34;;;;;;;4.23;3.53;;;;;;;8.10;45.25;98948.81;6909048;28;20230;-76
2021/01/26 13:57:02;;;;;;;5.37;3.30;;;;;;;8.22;44.68;98955.41;6914128;28;20239;-77
2021/01/26 14:00:24;;;;;;;4.23;3.40;;;;;;;8.28;45.33;98971.63;6900406;28;20303;-76
2021/01/26 14:03:46;;;;;;;4.00;3.50;;;;;;;7.60;44.52;98855.63;6912153;28;20242;-75
2021/01/26 14:07:07;;;;;;;5.97;4.33;;;;;;;8.13;45.07;98926.97;6922342;28;20203;-76
2021/01/26 14:10:29;;;;;;;6.90;4.10;;;;;;;7.63;45.92;98876.72;6895647;28;20209;-75
2021/01/26 14:13:53;;;;;;;6.10;3.03;;;;;;;8.24;44.91;98991.00;6900395;28;20208;-77
2021/01/26 14:17:14;;;;;;;4.33;3.20;;;;;;;8.31;44.48;98957.00;6909578;28;20228;-76
2021/01/26 14:20:35;;;;;;;5.63;3.10;;;;;;;7.81;45.77;98914.75;6907803;28;20558;-75
2021/01/26 14:23:57;;;;;;;6.57;3.70;;;;;;;8.27;44.70;98961.91;6890863;28;20301;-76
2021/01/26 14:27:18;;;;;;;3.57;3.27;;;;;;;7.50;44.87;98923.97;6891416;28;20212;-76
2021/01/26 14:30:41;;;;;;;8.40;4.00;;;;;;;7.60;45.55;98882.44;6891257;28;20650;-76
2021/01/26 14:34:03;;;;;;;4.70;3.40;;;;;;;8.15;44.41;98954.47;6900689;28;20675;-74
2021/01/26 14:37:25;;;;;;;5.40;3.40;;;;;;;7.63;44.49;98946.50;6909986;28;20233;-76
2021/01/26 14:40:46;;;;;;;4.13;3.73;;;;;;;8.10;44.53;98965.78;6890947;28;20283;-74
2021/01/26 14:44:08;;;;;;;3.90;3.50;;;;;;;7.95;44.41;98939.94;6890554;28;20240;-74
2021/01/26 14:47:30;;;;;;;5.07;3.33;;;;;;;8.23;44.50;99013.47;6895363;28;20286;-74
2021/01/26 14:50:52;;;;;;;7.20;3.00;;;;;;;8.49;44.58;99006.59;6890041;28;20236;-74
2021/01/26 14:54:13;;;;;;;6.07;3.30;;;;;;;8.69;44.13;99006.88;6912967;28;20699;-73
2021/01/26 14:57:34;;;;;;;7.03;3.23;;;;;;;8.38;44.22;99007.06;6921767;28;20625;-73
2021/01/26 15:00:55;;;;;;;3.47;3.17;;;;;;;8.23;43.82;98986.63;6921922;28;20210;-73
2021/01/26 15:04:18;;;;;;;5.97;2.80;;;;;;;8.28;44.63;98990.44;6908601;28;20230;-73
2021/01/26 15:07:39;;;;;;;5.50;2.87;;;;;;;8.11;45.46;99023.81;6936364;28;20210;-73
2021/01/26 15:11:00;;;;;;;3.03;2.83;;;;;;;7.96;44.30;99022.97;6920509;28;20211;-73
2021/01/26 15:14:21;;;;;;;5.20;3.03;;;;;;;7.99;45.22;99013.72;6922359;28;20616;-73
2021/01/26 15:17:43;;;;;;;3.23;2.90;;;;;;;8.00;44.48;99016.22;6920785;28;20231;-72
2021/01/26 15:21:05;;;;;;;3.93;2.90;;;;;;;8.04;45.69;99033.63;6911589;28;20204;-73
2021/01/26 15:24:30;;;;;;;4.43;2.60;;;;;;;8.06;44.48;99044.16;6921102;28;20202;-72
2021/01/26 15:27:51;;;;;;;5.73;2.80;;;;;;;7.56;44.88;99049.34;6902196;28;20206;-73
2021/01/26 15:31:14;;;;;;;3.37;2.90;;;;;;;7.46;45.06;99004.00;6913849;28;20215;-73
2021/01/26 15:34:35;;;;;;;4.60;3.50;;;;;;;8.22;44.12;99047.56;6912481;28;20205;-73
2021/01/26 15:37:58;;;;;;;5.93;3.10;;;;;;;8.25;43.72;99049.06;6888933;28;20237;-72
2021/01/26 15:41:21;;;;;;;5.23;2.80;;;;;;;8.00;43.02;99029.66;6911359;28;20200;-73
2021/01/26 15:44:44;;;;;;;3.77;3.37;;;;;;;8.32;43.51;99058.84;6893814;28;20266;-72
2021/01/26 15:48:06;;;;;;;4.43;3.30;;;;;;;7.97;43.50;99062.25;6891371;28;20221;-72
2021/01/26 15:51:27;;;;;;;4.43;2.50;;;;;;;7.82;43.66;99064.03;6901724;28;20213;-73
2021/01/26 15:54:53;;;;;;;3.20;2.90;;;;;;;8.02;43.17;99069.75;6903567;28;20214;-71
2021/01/26 15:58:14;;;;;;;4.70;3.10;;;;;;;8.20;42.83;99072.94;6907435;28;20226;-71
2021/01/26 16:01:35;;;;;;;3.50;2.80;;;;;;;7.80;43.51;99070.59;6919522;28;20232;-73
2021/01/26 16:04:56;;;;;;;3.97;3.20;;;;;;;7.80;43.82;99076.81;6918067;28;20568;-72
2021/01/26 16:08:19;;;;;;;4.50;3.60;;;;;;;7.97;42.96;99077.50;6893531;28;20211;-72
2021/01/26 16:11:41;;;;;;;3.80;2.73;;;;;;;7.83;43.36;99068.41;6912295;28;20207;-72
2021/01/26 16:15:08;;;;;;;5.23;3.00;;;;;;;8.03;43.19;99079.47;6919805;28;20235;-72
2021/01/26 16:18:29;;;;;;;2.70;2.50;;;;;;;7.66;43.77;99084.81;6901523;28;20303;-72
2021/01/26 16:21:52;;;;;;;3.30;2.83;;;;;;;7.24;43.93;99058.47;6918545;28;20208;-72
2021/01/26 16:25:15;;;;;;;4.23;3.83;;;;;;;7.54;44.54;99099.69;6900624;28;20222;-72
2021/01/26 16:28:50;;;;;;;5.77;2.80;;;;;;;7.14;45.10;99103.44;6907473;28;20206;-73
2021/01/26 16:32:12;;;;;;;6.13;3.30;;;;;;;7.73;44.27;99105.38;6906156;28;20246;-72
2021/01/26 16:35:36;;;;;;;5.83;4.73;;;;;;;7.58;44.81;99099.13;6894131;28;20274;-74
2021/01/26 16:39:05;;;;;;;5.17;3.57;;;;;;;7.91;44.58;99122.00;6900419;28;20229;-73
2021/01/26 16:42:26;;;;;;;4.20;3.80;;;;;;;7.32;44.06;99001.25;6916835;28;20212;-73
2021/01/26 16:45:52;;;;;;;4.73;3.37;;;;;;;7.63;44.59;99102.13;6918782;28;20210;-72
2021/01/26 16:49:13;;;;;;;4.57;4.07;;;;;;;7.83;45.12;99111.34;6899415;28;20210;-72
2021/01/26 16:52:35;;;;;;;3.77;3.10;;;;;;;8.10;44.32;99124.22;6892741;28;20231;-73
2021/01/26 16:56:00;;;;;;;35.23;22.00;;;;;;;7.61;45.62;99125.59;6910839;28;20227;-73
2021/01/26 16:59:21;;;;;;;10.63;6.53;;;;;;;7.50;46.15;99117.97;6941117;28;20716;-73
2021/01/26 17:02:43;;;;;;;6.50;4.50;;;;;;;7.64;46.19;99109.16;6890057;28;20212;-73
2021/01/26 17:06:05;;;;;;;6.03;5.07;;;;;;;7.61;46.18;99122.09;6917735;28;20205;-72
2021/01/26 17:09:26;;;;;;;3.50;3.20;;;;;;;7.19;47.65;99119.84;6915387;28;20203;-72
2021/01/26 17:12:47;;;;;;;4.20;3.17;;;;;;;7.64;46.53;99138.66;6891476;28;20206;-73
2021/01/26 17:16:09;;;;;;;4.47;3.13;;;;;;;7.95;46.38;99125.19;6890964;28;20234;-72
2021/01/26 17:19:31;;;;;;;5.77;3.60;;;;;;;7.96;46.19;99140.28;6901413;28;20204;-72
2021/01/26 17:22:53;;;;;;;4.03;3.63;;;;;;;7.92;46.08;99131.75;6892971;28;20218;-72
2021/01/26 17:26:14;;;;;;;4.30;3.50;;;;;;;7.83;46.18;99138.19;6891533;28;20209;-71
2021/01/26 17:29:35;;;;;;;7.43;4.20;;;;;;;7.42;47.39;99136.78;6915425;28;20210;-72
2021/01/26 17:32:56;;;;;;;11.03;5.40;;;;;;;7.69;47.20;99125.56;6913645;28;20539;-72
2021/01/26 17:36:20;;;;;;;3.60;3.30;;;;;;;7.48;47.97;99132.59;6899851;28;20235;-71
2021/01/26 17:39:41;;;;;;;4.77;3.77;;;;;;;7.45;48.49;99140.97;6919522;28;20235;-72
2021/01/26 17:43:03;;;;;;;6.33;3.73;;;;;;;7.37;48.20;99151.75;6918210;28;20210;-73
2021/01/26 17:46:25;;;;;;;4.87;4.40;;;;;;;7.50;47.85;99149.31;6918208;28;20203;-72
2021/01/26 17:49:47;;;;;;;7.17;3.90;;;;;;;7.53;47.76;99138.22;6918402;28;20682;-73
2021/01/26 17:53:09;;;;;;;11.73;10.80;;;;;;;7.23;48.49;99137.25;6910437;28;20229;-73
2021/01/26 17:56:30;;;;;;;8.20;4.03;;;;;;;7.26;48.53;99146.78;6902733;28;20232;-74
2021/01/26 17:59:51;;;;;;;4.43;3.63;;;;;;;7.69;48.27;99143.50;6890933;28;20231;-72
2021/01/26 18:03:13;;;;;;;5.30;4.60;;;;;;;7.22;48.33;99115.97;6891729;28;20215;-72
2021/01/26 18:06:34;;;;;;;6.27;3.90;;;;;;;7.64;47.95;99137.81;6918347;28;20656;-73
2021/01/26 18:09:56;;;;;;;7.70;4.43;;;;;;;7.21;48.02;99058.84;6916017;28;20210;-74
2021/01/26 18:13:17;;;;;;;8.40;4.30;;;;;;;7.57;48.07;99151.13;6917853;28;20218;-72
2021/01/26 18:16:38;;;;;;;5.63;3.83;;;;;;;7.42;48.25;99150.22;6916421;28;20229;-72
2021/01/26 18:20:00;;;;;;;4.40;4.00;;;;;;;7.65;48.45;99167.16;6890878;28;20219;-73
2021/01/26 18:23:21;;;;;;;5.23;4.20;;;;;;;7.60;48.12;99155.31;6889262;28;20212;-72
2021/01/26 18:26:43;;;;;;;5.63;3.80;;;;;;;6.77;48.27;99049.69;6917818;28;20208;-73
2021/01/26 18:30:07;;;;;;;6.07;3.97;;;;;;;7.79;47.92;99176.31;6899644;28;20209;-73
2021/01/26 18:33:28;;;;;;;7.53;4.00;;;;;;;7.59;48.36;99173.25;6913797;28;20216;-73
2021/01/26 18:36:49;;;;;;;4.87;4.37;;;;;;;7.73;48.01;99163.59;6916796;28;20220;-73
2021/01/26 18:40:15;;;;;;;7.03;4.40;;;;;;;7.82;48.39;99176.78;6909167;28;20214;-73
2021/01/26 18:43:37;;;;;;;10.00;5.03;;;;;;;7.57;48.77;99186.00;6914948;28;20221;-73
2021/01/26 18:46:59;;;;;;;8.03;4.40;;;;;;;7.47;48.58;99158.56;6894799;28;20208;-72
2021/01/26 18:50:21;;;;;;;4.33;3.93;;;;;;;7.86;48.33;99179.94;6915753;28;20218;-72
2021/01/26 18:53:44;;;;;;;7.30;4.43;;;;;;;8.02;47.81;99187.88;6889943;28;20291;-72
2021/01/26 18:57:06;;;;;;;10.07;4.67;;;;;;;7.79;48.21;99171.75;6899705;28;20662;-73
2021/01/26 19:00:28;;;;;;;5.10;4.13;;;;;;;7.67;48.99;99185.78;6911697;28;20227;-72
2021/01/26 19:03:49;;;;;;;8.93;4.70;;;;;;;7.47;49.13;99192.59;6916740;28;20580;-72
2021/01/26 19:07:11;;;;;;;9.60;5.30;;;;;;;7.34;48.94;99155.63;6914089;28;20214;-72
2021/01/26 19:10:32;;;;;;;8.73;5.30;;;;;;;7.58;48.99;99179.63;6893042;28;20218;-73
2021/01/26 19:13:53;;;;;;;9.23;4.93;;;;;;;6.77;49.49;99071.13;6914009;28;20528;-73
2021/01/26 19:17:17;;;;;;;10.47;7.03;;;;;;;7.29;49.29;99160.69;6889946;28;20231;-73
2021/01/26 19:20:38;;;;;;;8.63;6.10;;;;;;;7.39;49.15;99198.84;6889314;28;20224;-73
2021/01/26 19:24:01;;;;;;;6.87;3.70;;;;;;;7.06;50.31;99210.72;6889660;28;20218;-73
2021/01/26 19:27:23;;;;;;;6.87;4.50;;;;;;;7.65;48.96;99202.06;6906128;28;20241;-72
2021/01/26 19:30:45;;;;;;;5.07;4.33;;;;;;;7.28;49.49;99193.03;6916696;28;20752;-72
2021/01/26 19:34:07;;;;;;;5.17;4.67;;;;;;;6.90;48.96;99090.16;6901391;28;20211;-75
2021/01/26 19:37:28;;;;;;;8.33;4.63;;;;;;;6.96;49.79;99161.00;6904033;28;20235;-73
2021/01/26 19:40:50;;;;;;;7.00;5.23;;;;;;;7.27;49.16;99207.47;6918587;28;20214;-74
2021/01/26 19:44:12;;;;;;;8.00;5.03;;;;;;;7.17;49.61;99196.94;6910730;28;20568;-74
2021/01/26 19:47:33;;;;;;;7.40;5.30;;;;;;;7.55;49.07;99204.13;6894655;28;20227;-74
2021/01/26 19:50:56;;;;;;;8.23;4.80;;;;;;;7.46;48.92;99170.31;6894640;28;20263;-74
2021/01/26 19:54:17;;;;;;;6.63;4.77;;;;;;;7.27;49.00;99130.53;6896253;28;20208;-74
2021/01/26 19:57:39;;;;;;;6.13;4.77;;;;;;;7.42;48.97;99150.22;6895299;28;20307;-81
2021/01/26 20:01:00;;;;;;;7.53;4.10;;;;;;;7.15;49.53;99177.53;6904090;28;20312;-81
2021/01/26 20:04:21;;;;;;;5.33;4.40;;;;;;;7.27;50.13;99202.94;6908682;28;20649;-81
2021/01/26 20:07:44;;;;;;;6.63;4.70;;;;;;;7.05;50.12;99166.16;6911041;28;20235;-80
2021/01/26 20:11:05;;;;;;;6.73;6.13;;;;;;;7.10;49.97;99176.34;6876331;28;20219;-79
2021/01/26 20:14:27;;;;;;;9.17;6.57;;;;;;;7.72;48.56;99212.94;6895673;28;21680;-83
2021/01/26 20:17:48;;;;;;;4.53;4.00;;;;;;;7.64;48.32;99196.84;6894111;28;20224;-83
2021/01/26 20:21:11;;;;;;;11.40;8.07;;;;;;;7.40;49.64;99200.53;6894763;28;20561;-81
2021/01/26 20:24:33;;;;;;;9.57;7.80;;;;;;;7.38;49.06;99167.66;6895578;28;20628;-81
2021/01/26 20:27:54;;;;;;;7.90;5.80;;;;;;;7.69;48.23;99189.13;6916693;28;20236;-80
2021/01/26 20:31:15;;;;;;;8.10;5.80;;;;;;;7.14;48.71;99105.28;6906705;28;20729;-79
2021/01/26 20:34:37;;;;;;;5.07;4.57;;;;;;;7.26;48.70;99144.09;6897269;28;20214;-79
2021/01/26 20:38:00;;;;;;;8.93;5.00;;;;;;;6.31;49.78;99079.19;6904050;28;20237;-79
2021/01/26 20:41:22;;;;;;;6.83;4.03;;;;;;;7.58;48.68;99198.41;6935827;28;20612;-79
2021/01/26 20:44:44;;;;;;;5.00;4.30;;;;;;;6.83;49.65;99156.19;6908070;28;20290;-79
2021/01/26 20:48:07;;;;;;;4.43;4.03;;;;;;;6.85;49.54;99159.53;6894085;28;20216;-79
2021/01/26 20:51:28;;;;;;;4.00;3.57;;;;;;;6.81;49.70;99206.47;6894425;28;20258;-79
2021/01/26 20:54:49;;;;;;;5.03;4.10;;;;;;;6.78;49.41;99179.16;6908963;28;20200;-80
2021/01/26 20:58:12;;;;;;;6.33;4.40;;;;;;;6.58;49.18;99109.06;6921033;28;20632;-80
2021/01/26 21:01:33;;;;;;;6.93;4.73;;;;;;;7.12;49.13;99196.63;6901125;28;20228;-81
2021/01/26 21:04:54;;;;;;;6.30;4.23;;;;;;;6.52;49.42;99128.50;6893767;28;20670;-79
2021/01/26 21:08:17;;;;;;;5.10;4.60;;;;;;;6.21;50.21;99145.47;6893899;28;20219;-79
2021/01/26 21:11:40;;;;;;;6.80;4.57;;;;;;;6.37;50.12;99146.25;6904239;28;20592;-79
2021/01/26 21:15:04;;;;;;;7.20;4.87;;;;;;;7.08;49.62;99211.38;6893494;28;20285;-79
2021/01/26 21:18:26;;;;;;;5.27;4.40;;;;;;;6.83;49.29;99192.91;6894481;28;20231;-79